Time,TemperatureF,DewpointF,PressureIn,WindDirection,WindDirectionDegrees,WindSpeedMPH,WindSpeedGustMPH,Humidity,HourlyPrecipIn,Conditions,Clouds,dailyrainin,SoftwareType,DateUTC
2013-03-24 00:01:00,71.6,70.3,29.83,ENE,76,1.0,7.0,96,0.00,,,0.00,meteohub,2013-03-24 04:01:00,
2013-03-24 00:06:00,71.6,70.3,29.83,ESE,117,1.0,7.0,96,0.00,,,0.00,meteohub,2013-03-24 04:06:00,
2013-03-24 00:11:00,71.8,70.5,29.83,ESE,117,2.0,7.0,96,0.00,,,0.00,meteohub,2013-03-24 04:11:00,
2013-03-24 00:21:00,71.8,70.5,29.83,ESE,107,1.0,8.0,96,0.00,,,0.00,meteohub,2013-03-24 04:21:00,
2013-03-24 00:26:00,71.8,70.5,29.82,East,101,5.0,8.0,96,0.00,,,0.00,meteohub,2013-03-24 04:26:00,
2013-03-24 00:36:00,72.0,70.7,29.82,ESE,115,3.0,7.0,96,0.00,,,0.00,meteohub,2013-03-24 04:36:00,
2013-03-24 00:41:00,72.0,70.7,29.82,East,98,3.0,7.0,96,0.00,,,0.00,meteohub,2013-03-24 04:41:00,
2013-03-24 00:51:00,72.0,70.7,29.81,East,87,3.0,7.0,96,0.00,,,0.00,meteohub,2013-03-24 04:51:00,
2013-03-24 00:56:00,72.1,70.9,29.81,ESE,116,2.0,5.0,96,0.00,,,0.00,meteohub,2013-03-24 04:56:00,
2013-03-24 01:01:00,72.1,70.9,29.81,ESE,120,5.0,8.0,96,0.00,,,0.00,meteohub,2013-03-24 05:01:00,
2013-03-24 01:12:00,72.1,70.9,29.81,East,89,1.0,8.0,96,0.00,,,0.00,meteohub,2013-03-24 05:12:00,
2013-03-24 01:21:00,72.1,70.7,29.81,East,92,2.0,8.0,95,0.00,,,0.00,meteohub,2013-03-24 05:21:00,
2013-03-24 01:26:00,72.1,70.7,29.80,ESE,111,8.0,8.0,95,0.00,,,0.00,meteohub,2013-03-24 05:26:00,
2013-03-24 01:31:00,72.1,70.7,29.80,East,94,1.0,8.0,95,0.00,,,0.00,meteohub,2013-03-24 05:31:00,
2013-03-24 01:36:00,72.1,70.7,29.80,SE,134,1.0,8.0,95,0.00,,,0.00,meteohub,2013-03-24 05:36:00,
2013-03-24 01:41:00,72.0,70.5,29.80,ESE,117,1.0,8.0,95,0.00,,,0.00,meteohub,2013-03-24 05:41:00,
2013-03-24 01:46:00,72.0,70.5,29.80,ESE,108,2.0,8.0,95,0.00,,,0.00,meteohub,2013-03-24 05:46:00,
2013-03-24 01:51:00,72.0,70.5,29.79,East,101,2.0,8.0,95,0.00,,,0.00,meteohub,2013-03-24 05:51:00,
2013-03-24 01:56:00,72.0,70.5,29.79,SE,134,3.0,7.0,95,0.00,,,0.00,meteohub,2013-03-24 05:56:00,
2013-03-24 02:01:00,71.8,70.3,29.78,SE,139,1.0,7.0,95,0.00,,,0.00,meteohub,2013-03-24 06:01:00,
2013-03-24 02:11:00,71.6,70.2,29.78,East,97,3.0,4.0,95,0.00,,,0.00,meteohub,2013-03-24 06:11:00,
2013-03-24 02:16:00,71.4,70.0,29.77,SE,133,3.0,6.0,95,0.00,,,0.00,meteohub,2013-03-24 06:16:00,
2013-03-24 02:21:00,71.4,70.0,29.77,SE,142,4.0,7.0,95,0.00,,,0.00,meteohub,2013-03-24 06:21:00,
2013-03-24 02:31:00,71.4,70.0,29.77,SE,134,3.0,8.0,95,0.00,,,0.00,meteohub,2013-03-24 06:31:00,
2013-03-24 02:36:00,71.4,70.0,29.76,SE,126,4.0,8.0,95,0.00,,,0.00,meteohub,2013-03-24 06:36:00,
2013-03-24 02:41:00,71.4,70.0,29.76,ESE,107,4.0,8.0,95,0.00,,,0.00,meteohub,2013-03-24 06:41:00,
2013-03-24 02:51:00,71.4,70.0,29.75,East,101,1.0,8.0,95,0.00,,,0.00,meteohub,2013-03-24 06:51:00,
2013-03-24 02:56:00,71.4,70.0,29.75,SE,143,4.0,8.0,95,0.00,,,0.00,meteohub,2013-03-24 06:56:00,
2013-03-24 03:01:00,71.4,70.0,29.75,ESE,121,2.0,9.0,95,0.00,,,0.00,meteohub,2013-03-24 07:01:00,
2013-03-24 03:06:00,71.4,70.0,29.74,SSE,147,2.0,9.0,95,0.00,,,0.00,meteohub,2013-03-24 07:06:00,
2013-03-24 03:11:00,71.4,70.0,29.74,SE,125,1.0,9.0,95,0.00,,,0.00,meteohub,2013-03-24 07:11:00,
2013-03-24 03:16:00,71.4,69.6,29.74,East,98,2.0,9.0,94,0.00,,,0.00,meteohub,2013-03-24 07:16:00,
2013-03-24 03:21:00,71.4,69.6,29.74,SE,146,2.0,8.0,94,0.00,,,0.00,meteohub,2013-03-24 07:21:00,
2013-03-24 03:26:00,71.4,69.6,29.74,East,90,3.0,7.0,94,0.00,,,0.00,meteohub,2013-03-24 07:26:00,
2013-03-24 03:31:00,71.4,69.6,29.74,SE,144,5.0,8.0,94,0.00,,,0.00,meteohub,2013-03-24 07:31:00,
2013-03-24 03:36:00,71.4,69.6,29.74,East,101,2.0,8.0,94,0.00,,,0.00,meteohub,2013-03-24 07:36:00,
2013-03-24 03:42:00,71.4,69.6,29.74,SE,140,0.0,8.0,94,0.00,,,0.00,meteohub,2013-03-24 07:42:00,
2013-03-24 03:51:00,71.2,69.4,29.74,SE,136,1.0,8.0,94,0.00,,,0.00,meteohub,2013-03-24 07:51:00,
2013-03-24 04:01:00,71.4,70.0,29.74,East,96,5.0,8.0,95,0.00,,,0.00,meteohub,2013-03-24 08:01:00,
2013-03-24 04:06:00,71.4,70.0,29.74,SE,128,3.0,8.0,95,0.00,,,0.00,meteohub,2013-03-24 08:06:00,
2013-03-24 04:11:00,71.4,70.0,29.73,ESE,106,3.0,7.0,95,0.00,,,0.00,meteohub,2013-03-24 08:11:00,
2013-03-24 04:16:00,71.4,70.0,29.73,East,84,3.0,10.0,95,0.00,,,0.00,meteohub,2013-03-24 08:16:00,
2013-03-24 04:21:00,71.4,69.6,29.73,SSE,154,2.0,10.0,94,0.00,,,0.00,meteohub,2013-03-24 08:21:00,
2013-03-24 04:31:00,71.2,69.4,29.73,SE,139,2.0,9.0,94,0.00,,,0.00,meteohub,2013-03-24 08:31:00,
2013-03-24 04:36:00,71.2,69.4,29.73,SE,128,0.0,8.0,94,0.00,,,0.00,meteohub,2013-03-24 08:36:00,
2013-03-24 04:41:00,71.1,69.3,29.73,East,87,0.0,8.0,94,0.00,,,0.00,meteohub,2013-03-24 08:41:00,
2013-03-24 04:46:00,71.1,69.3,29.73,SE,143,2.0,8.0,94,0.00,,,0.00,meteohub,2013-03-24 08:46:00,
2013-03-24 04:51:00,71.1,69.3,29.73,ESE,108,2.0,8.0,94,0.00,,,0.00,meteohub,2013-03-24 08:51:00,
2013-03-24 04:56:00,71.1,69.3,29.73,SE,141,0.0,7.0,94,0.00,,,0.00,meteohub,2013-03-24 08:56:00,
2013-03-24 05:01:00,71.1,69.3,29.73,ESE,105,1.0,7.0,94,0.00,,,0.00,meteohub,2013-03-24 09:01:00,
2013-03-24 05:06:00,71.2,69.4,29.73,ESE,120,0.0,6.0,94,0.00,,,0.00,meteohub,2013-03-24 09:06:00,
2013-03-24 05:11:00,71.2,69.4,29.72,ESE,105,2.0,5.0,94,0.00,,,0.00,meteohub,2013-03-24 09:11:00,
2013-03-24 05:16:00,71.4,69.6,29.72,ESE,107,2.0,6.0,94,0.00,,,0.00,meteohub,2013-03-24 09:16:00,
2013-03-24 05:26:00,72.0,69.8,29.72,ESE,115,3.0,10.0,93,0.00,,,0.00,meteohub,2013-03-24 09:26:00,
2013-03-24 05:31:00,72.1,70.3,29.72,ESE,121,2.0,10.0,94,0.00,,,0.00,meteohub,2013-03-24 09:31:00,
2013-03-24 05:37:00,72.3,70.5,29.72,SE,126,7.0,12.0,94,0.00,,,0.00,meteohub,2013-03-24 09:37:00,
2013-03-24 05:46:00,72.9,70.7,29.72,ESE,109,2.0,12.0,93,0.00,,,0.00,meteohub,2013-03-24 09:46:00,
2013-03-24 05:51:00,72.9,70.7,29.71,SE,130,3.0,13.0,93,0.00,,,0.00,meteohub,2013-03-24 09:51:00,
2013-03-24 05:56:00,73.0,70.9,29.71,East,92,9.0,19.0,93,0.00,,,0.00,meteohub,2013-03-24 09:56:00,
2013-03-24 06:01:00,73.0,70.9,29.71,SSE,159,5.0,19.0,93,0.00,,,0.00,meteohub,2013-03-24 10:01:00,
2013-03-24 06:06:00,73.0,70.9,29.71,SE,124,7.0,19.0,93,0.00,,,0.00,meteohub,2013-03-24 10:06:00,
2013-03-24 06:11:00,73.0,70.9,29.70,ESE,117,4.0,16.0,93,0.00,,,0.00,meteohub,2013-03-24 10:11:00,
2013-03-24 06:17:00,73.0,70.9,29.70,ESE,117,5.0,14.0,93,0.00,,,0.00,meteohub,2013-03-24 10:17:00,
2013-03-24 06:26:00,73.0,70.9,29.70,SSE,161,5.0,17.0,93,0.00,,,0.00,meteohub,2013-03-24 10:26:00,
2013-03-24 06:31:00,73.0,70.9,29.70,SE,140,12.0,19.0,93,0.00,,,0.00,meteohub,2013-03-24 10:31:00,
2013-03-24 06:36:00,73.0,70.9,29.70,SE,129,6.0,19.0,93,0.00,,,0.00,meteohub,2013-03-24 10:36:00,
2013-03-24 06:41:00,72.9,70.7,29.70,SSE,150,9.0,19.0,93,0.00,,,0.00,meteohub,2013-03-24 10:41:00,
2013-03-24 06:46:00,72.7,70.5,29.70,SE,136,8.0,19.0,93,0.00,,,0.00,meteohub,2013-03-24 10:46:00,
2013-03-24 06:51:00,72.7,70.5,29.70,SSE,167,6.0,19.0,93,0.00,,,0.00,meteohub,2013-03-24 10:51:00,
2013-03-24 06:56:00,72.7,70.5,29.70,SE,134,2.0,19.0,93,0.00,,,0.00,meteohub,2013-03-24 10:56:00,
2013-03-24 07:01:00,72.7,70.5,29.71,ESE,114,8.0,18.0,93,0.00,,,0.00,meteohub,2013-03-24 11:01:00,
2013-03-24 07:06:00,72.7,70.5,29.71,SE,145,6.0,18.0,93,0.00,,,0.00,meteohub,2013-03-24 11:06:00,
2013-03-24 07:16:00,72.7,70.5,29.71,East,83,5.0,20.0,93,0.00,,,0.00,meteohub,2013-03-24 11:16:00,
2013-03-24 07:26:00,72.7,70.5,29.71,SE,140,7.0,20.0,93,0.00,,,0.00,meteohub,2013-03-24 11:26:00,
2013-03-24 07:31:00,72.9,70.7,29.71,SSE,163,2.0,18.0,93,0.00,,,0.00,meteohub,2013-03-24 11:31:00,
2013-03-24 07:41:00,72.9,70.7,29.71,SSE,167,4.0,15.0,93,0.00,,,0.00,meteohub,2013-03-24 11:41:00,
2013-03-24 07:46:00,72.7,70.5,29.71,ESE,123,10.0,15.0,93,0.00,,,0.00,meteohub,2013-03-24 11:46:00,
2013-03-24 07:51:00,72.7,70.5,29.71,ESE,117,7.0,14.0,93,0.00,,,0.00,meteohub,2013-03-24 11:51:00,
2013-03-24 07:56:00,72.7,70.5,29.70,SE,135,8.0,17.0,93,0.00,,,0.00,meteohub,2013-03-24 11:56:00,
2013-03-24 08:01:00,72.7,70.5,29.70,SE,134,6.0,17.0,93,0.00,,,0.00,meteohub,2013-03-24 12:01:00,
2013-03-24 08:06:00,72.5,70.3,29.71,SSE,157,7.0,15.0,93,0.00,,,0.00,meteohub,2013-03-24 12:06:00,
2013-03-24 08:11:00,72.7,70.5,29.70,South,172,8.0,15.0,93,0.00,,,0.00,meteohub,2013-03-24 12:11:00,
2013-03-24 08:16:00,72.7,70.5,29.70,SE,129,5.0,15.0,93,0.00,,,0.00,meteohub,2013-03-24 12:16:00,
2013-03-24 08:21:00,72.9,71.1,29.71,SSE,153,9.0,15.0,94,0.00,,,0.00,meteohub,2013-03-24 12:21:00,
2013-03-24 08:26:00,73.0,70.9,29.71,SE,142,3.0,18.0,93,0.00,,,0.00,meteohub,2013-03-24 12:26:00,
2013-03-24 08:36:00,73.2,71.1,29.71,SSW,195,3.0,18.0,93,0.00,,,0.00,meteohub,2013-03-24 12:36:00,
2013-03-24 08:46:00,73.2,70.7,29.73,SE,138,14.0,18.0,92,0.00,,,0.00,meteohub,2013-03-24 12:46:00,
2013-03-24 08:51:00,73.2,70.7,29.73,SE,132,9.0,18.0,92,0.00,,,0.00,meteohub,2013-03-24 12:51:00,
2013-03-24 08:57:00,73.2,71.1,29.74,SE,128,6.0,18.0,93,0.00,,,0.00,meteohub,2013-03-24 12:57:00,
2013-03-24 09:06:00,73.4,71.2,29.75,East,92,8.0,16.0,93,0.00,,,0.00,meteohub,2013-03-24 13:06:00,
2013-03-24 09:11:00,73.4,71.2,29.75,SSE,151,6.0,15.0,93,0.00,,,0.00,meteohub,2013-03-24 13:11:00,
2013-03-24 09:16:00,73.6,71.4,29.75,ENE,72,10.0,16.0,93,0.00,,,0.00,meteohub,2013-03-24 13:16:00,
2013-03-24 09:21:00,73.6,71.4,29.76,SSE,150,3.0,19.0,93,0.00,,,0.00,meteohub,2013-03-24 13:21:00,
2013-03-24 09:31:00,73.2,71.1,29.76,SSE,156,4.0,17.0,93,0.00,,,0.00,meteohub,2013-03-24 13:31:00,
2013-03-24 09:36:00,73.0,70.9,29.76,East,88,7.0,17.0,93,0.00,,,0.00,meteohub,2013-03-24 13:36:00,
2013-03-24 09:41:00,73.0,70.9,29.77,East,100,5.0,13.0,93,0.00,,,0.00,meteohub,2013-03-24 13:41:00,
2013-03-24 09:46:00,72.9,71.1,29.77,SE,130,8.0,13.0,94,0.00,,,0.00,meteohub,2013-03-24 13:46:00,
2013-03-24 09:51:00,72.7,70.9,29.77,SSE,156,1.0,13.0,94,0.00,,,0.00,meteohub,2013-03-24 13:51:00,
2013-03-24 09:56:00,72.7,70.9,29.77,SE,145,8.0,13.0,94,0.00,,,0.00,meteohub,2013-03-24 13:56:00,
2013-03-24 10:01:00,72.5,71.1,29.77,SE,124,6.0,14.0,95,0.00,,,0.00,meteohub,2013-03-24 14:01:00,
2013-03-24 10:06:00,72.5,71.1,29.77,SE,136,8.0,14.0,95,0.00,,,0.00,meteohub,2013-03-24 14:06:00,
2013-03-24 10:16:00,72.7,71.2,29.77,SSE,148,4.0,14.0,95,0.00,,,0.00,meteohub,2013-03-24 14:16:00,
2013-03-24 10:26:00,73.0,71.2,29.77,SE,144,1.0,14.0,94,0.00,,,0.00,meteohub,2013-03-24 14:26:00,
2013-03-24 10:31:00,73.4,71.6,29.78,SSW,202,5.0,14.0,94,0.00,,,0.00,meteohub,2013-03-24 14:31:00,
2013-03-24 10:41:00,73.9,71.8,29.78,SSE,167,3.0,14.0,93,0.00,,,0.00,meteohub,2013-03-24 14:41:00,
2013-03-24 10:46:00,74.3,72.1,29.78,ESE,110,5.0,14.0,93,0.00,,,0.00,meteohub,2013-03-24 14:46:00,
2013-03-24 10:51:00,74.8,72.3,29.78,SSE,162,4.0,12.0,92,0.00,,,0.00,meteohub,2013-03-24 14:51:00,
2013-03-24 10:56:00,75.0,72.1,29.78,South,182,3.0,12.0,91,0.00,,,0.00,meteohub,2013-03-24 14:56:00,
2013-03-24 11:01:00,75.9,73.0,29.77,SSW,199,6.0,17.0,91,0.00,,,0.00,meteohub,2013-03-24 15:01:00,
2013-03-24 11:06:00,76.5,73.0,29.76,SE,135,9.0,17.0,89,0.00,,,0.00,meteohub,2013-03-24 15:06:00,
2013-03-24 11:17:00,77.7,73.2,29.75,South,182,7.0,22.0,86,0.00,,,0.00,meteohub,2013-03-24 15:17:00,
2013-03-24 11:26:00,78.1,73.2,29.77,SSE,163,4.0,15.0,85,0.00,,,0.00,meteohub,2013-03-24 15:26:00,
2013-03-24 11:36:00,78.4,73.6,29.76,ENE,74,8.0,14.0,85,0.00,,,0.00,meteohub,2013-03-24 15:36:00,
2013-03-24 11:41:00,78.3,73.4,29.77,South,179,3.0,14.0,85,0.00,,,0.00,meteohub,2013-03-24 15:41:00,
2013-03-24 11:46:00,78.6,73.8,29.76,SSE,154,4.0,14.0,85,0.00,,,0.00,meteohub,2013-03-24 15:46:00,
2013-03-24 11:51:00,79.0,73.8,29.76,South,171,9.0,14.0,84,0.00,,,0.00,meteohub,2013-03-24 15:51:00,
2013-03-24 11:56:00,79.2,73.6,29.76,SSW,202,4.0,19.0,83,0.00,,,0.00,meteohub,2013-03-24 15:56:00,
2013-03-24 12:01:00,79.9,74.3,29.77,ESE,110,7.0,19.0,83,0.00,,,0.00,meteohub,2013-03-24 16:01:00,
2013-03-24 12:06:00,79.9,73.9,29.76,SSE,147,3.0,19.0,82,0.00,,,0.00,meteohub,2013-03-24 16:06:00,
2013-03-24 12:16:00,79.0,73.4,29.76,SSE,152,7.0,21.0,83,0.00,,,0.00,meteohub,2013-03-24 16:16:00,
2013-03-24 12:21:00,78.3,73.0,29.76,SSE,165,2.0,21.0,84,0.00,,,0.00,meteohub,2013-03-24 16:21:00,
2013-03-24 12:26:00,78.1,73.2,29.75,ENE,69,4.0,21.0,85,0.00,,,0.00,meteohub,2013-03-24 16:26:00,
2013-03-24 12:31:00,77.7,72.9,29.75,ESE,106,4.0,21.0,85,0.00,,,0.00,meteohub,2013-03-24 16:31:00,
2013-03-24 12:41:00,78.1,73.2,29.75,South,179,5.0,20.0,85,0.00,,,0.00,meteohub,2013-03-24 16:41:00,
2013-03-24 12:46:00,78.4,73.2,29.75,SW,224,8.0,20.0,84,0.00,,,0.00,meteohub,2013-03-24 16:46:00,
2013-03-24 12:56:00,78.3,73.4,29.74,ESE,115,3.0,22.0,85,0.00,,,0.00,meteohub,2013-03-24 16:56:00,
2013-03-24 13:01:00,78.4,73.2,29.73,SE,126,3.0,22.0,84,0.00,,,0.00,meteohub,2013-03-24 17:01:00,
2013-03-24 13:06:00,78.4,73.2,29.73,East,90,3.0,16.0,84,0.00,,,0.00,meteohub,2013-03-24 17:06:00,
2013-03-24 13:11:00,78.4,73.2,29.73,ESE,118,10.0,15.0,84,0.00,,,0.00,meteohub,2013-03-24 17:11:00,
2013-03-24 13:21:00,78.4,73.6,29.72,SSE,148,12.0,18.0,85,0.00,,,0.00,meteohub,2013-03-24 17:21:00,
2013-03-24 13:26:00,78.4,73.2,29.71,ESE,122,5.0,18.0,84,0.00,,,0.00,meteohub,2013-03-24 17:26:00,
2013-03-24 13:31:00,78.4,73.2,29.71,SE,146,9.0,18.0,84,0.00,,,0.00,meteohub,2013-03-24 17:31:00,
2013-03-24 13:41:00,77.9,73.0,29.71,South,171,4.0,22.0,85,0.00,,,0.00,meteohub,2013-03-24 17:41:00,
2013-03-24 13:46:00,77.5,72.7,29.71,West,277,5.0,22.0,85,0.00,,,0.00,meteohub,2013-03-24 17:46:00,
2013-03-24 13:51:00,77.2,72.7,29.71,SSE,155,3.0,22.0,86,0.00,,,0.00,meteohub,2013-03-24 17:51:00,
2013-03-24 14:01:00,77.2,73.0,29.70,East,86,7.0,21.0,87,0.00,,,0.00,meteohub,2013-03-24 18:01:00,
2013-03-24 14:12:00,77.4,72.9,29.70,South,173,4.0,19.0,86,0.00,,,0.00,meteohub,2013-03-24 18:12:00,
2013-03-24 14:21:00,77.0,72.9,29.70,SSE,157,12.0,22.0,87,0.00,,,0.00,meteohub,2013-03-24 18:21:00,
2013-03-24 14:26:00,77.2,73.0,29.69,WSW,249,5.0,17.0,87,0.00,,,0.00,meteohub,2013-03-24 18:26:00,
2013-03-24 14:31:00,76.6,72.5,29.69,South,173,14.0,17.0,87,0.00,,,0.00,meteohub,2013-03-24 18:31:00,
2013-03-24 14:37:00,76.3,72.5,29.69,ESE,108,9.0,28.0,88,0.00,,,0.00,meteohub,2013-03-24 18:37:00,
2013-03-24 14:46:00,76.3,72.9,29.70,ESE,105,2.0,20.0,89,0.00,,,0.00,meteohub,2013-03-24 18:46:00,
2013-03-24 14:56:00,75.9,72.5,29.69,SW,214,7.0,18.0,89,0.00,,,0.00,meteohub,2013-03-24 18:56:00,
2013-03-24 15:06:00,75.6,72.5,29.69,SSE,150,3.0,20.0,90,0.00,,,0.00,meteohub,2013-03-24 19:06:00,
2013-03-24 15:16:00,75.7,72.3,29.69,SSE,167,4.0,16.0,89,0.00,,,0.00,meteohub,2013-03-24 19:16:00,
2013-03-24 15:21:00,75.9,72.5,29.69,South,177,3.0,14.0,89,0.00,,,0.00,meteohub,2013-03-24 19:21:00,
2013-03-24 15:31:00,75.7,72.0,29.69,ESE,109,5.0,18.0,88,0.00,,,0.00,meteohub,2013-03-24 19:31:00,
2013-03-24 15:36:00,75.6,72.1,29.69,South,170,2.0,15.0,89,0.00,,,0.00,meteohub,2013-03-24 19:36:00,
2013-03-24 15:46:00,76.3,72.5,29.69,SSE,159,5.0,16.0,88,0.00,,,0.00,meteohub,2013-03-24 19:46:00,
2013-03-24 15:51:00,76.8,72.7,29.68,ESE,113,7.0,16.0,87,0.00,,,0.00,meteohub,2013-03-24 19:51:00,
2013-03-24 15:56:00,77.4,72.9,29.68,East,97,5.0,17.0,86,0.00,,,0.00,meteohub,2013-03-24 19:56:00,
2013-03-24 16:01:00,77.4,72.5,29.68,SW,224,10.0,17.0,85,0.00,,,0.00,meteohub,2013-03-24 20:01:00,
2013-03-24 16:11:00,77.2,72.7,29.68,SSE,165,1.0,20.0,86,0.00,,,0.00,meteohub,2013-03-24 20:11:00,
2013-03-24 16:16:00,77.5,72.7,29.67,SSE,158,8.0,20.0,85,0.00,,,0.00,meteohub,2013-03-24 20:16:00,
2013-03-24 16:21:00,77.2,72.7,29.67,SE,139,7.0,18.0,86,0.00,,,0.00,meteohub,2013-03-24 20:21:00,
2013-03-24 16:31:00,76.6,72.5,29.67,SSE,157,10.0,18.0,87,0.00,,,0.00,meteohub,2013-03-24 20:31:00,
2013-03-24 16:36:00,76.5,72.3,29.68,SE,130,9.0,15.0,87,0.00,,,0.00,meteohub,2013-03-24 20:36:00,
2013-03-24 16:41:00,76.5,72.3,29.68,SSW,200,4.0,17.0,87,0.00,,,0.00,meteohub,2013-03-24 20:41:00,
2013-03-24 16:51:00,75.9,71.8,29.67,South,180,3.0,17.0,87,0.00,,,0.00,meteohub,2013-03-24 20:51:00,
2013-03-24 16:56:00,75.7,72.0,29.67,SSW,205,2.0,17.0,88,0.00,,,0.00,meteohub,2013-03-24 20:56:00,
2013-03-24 17:01:00,75.4,72.0,29.67,SW,219,6.0,17.0,89,0.00,,,0.00,meteohub,2013-03-24 21:01:00,
2013-03-24 17:06:00,75.0,71.2,29.67,SSE,163,7.0,14.0,88,0.00,,,0.00,meteohub,2013-03-24 21:06:00,
2013-03-24 17:11:00,74.8,71.4,29.68,NW,322,5.0,14.0,89,0.00,,,0.00,meteohub,2013-03-24 21:11:00,
2013-03-24 17:17:00,73.8,70.3,29.68,West,271,7.0,14.0,89,0.00,,,0.00,meteohub,2013-03-24 21:17:00,
2013-03-24 17:22:00,73.2,70.5,29.68,SSW,200,8.0,14.0,91,0.00,,,0.00,meteohub,2013-03-24 21:22:00,
2013-03-24 17:31:00,73.0,70.5,29.68,South,182,5.0,12.0,92,0.00,,,0.00,meteohub,2013-03-24 21:31:00,
2013-03-24 17:36:00,72.9,70.3,29.68,South,172,1.0,12.0,92,0.00,,,0.00,meteohub,2013-03-24 21:36:00,
2013-03-24 17:41:00,73.0,70.5,29.68,SW,219,4.0,12.0,92,0.00,,,0.00,meteohub,2013-03-24 21:41:00,
2013-03-24 17:51:00,73.0,70.3,29.68,East,90,5.0,11.0,91,0.00,,,0.00,meteohub,2013-03-24 21:51:00,
2013-03-24 17:57:00,72.9,70.2,29.68,SSE,153,7.0,11.0,91,0.00,,,0.00,meteohub,2013-03-24 21:57:00,
2013-03-24 18:06:00,72.7,70.2,29.68,SSE,153,5.0,10.0,92,0.00,,,0.00,meteohub,2013-03-24 22:06:00,
2013-03-24 18:11:00,72.7,70.5,29.68,South,175,4.0,9.0,93,0.00,,,0.00,meteohub,2013-03-24 22:11:00,
2013-03-24 18:16:00,72.7,70.2,29.68,South,175,4.0,9.0,92,0.00,,,0.00,meteohub,2013-03-24 22:16:00,
2013-03-24 18:26:00,72.5,70.0,29.69,SW,227,2.0,9.0,92,0.00,,,0.00,meteohub,2013-03-24 22:26:00,
2013-03-24 18:36:00,72.3,70.2,29.69,South,173,4.0,10.0,93,0.00,,,0.00,meteohub,2013-03-24 22:36:00,
2013-03-24 18:46:00,72.3,70.2,29.69,WNW,298,2.0,10.0,93,0.00,,,0.00,meteohub,2013-03-24 22:46:00,
2013-03-24 18:56:00,72.0,69.8,29.69,SSW,206,4.0,10.0,93,0.00,,,0.00,meteohub,2013-03-24 22:56:00,
2013-03-24 19:01:00,72.0,69.8,29.69,SW,215,7.0,8.0,93,0.00,,,0.00,meteohub,2013-03-24 23:01:00,
2013-03-24 19:06:00,72.0,69.8,29.69,SSW,212,2.0,8.0,93,0.00,,,0.00,meteohub,2013-03-24 23:06:00,
2013-03-24 19:16:00,72.0,70.2,29.70,SW,214,4.0,8.0,94,0.00,,,0.00,meteohub,2013-03-24 23:16:00,
2013-03-24 19:26:00,71.8,70.0,29.70,SSE,151,2.0,7.0,94,0.00,,,0.00,meteohub,2013-03-24 23:26:00,
2013-03-24 19:31:00,71.8,70.0,29.71,SSW,206,3.0,7.0,94,0.00,,,0.00,meteohub,2013-03-24 23:31:00,
2013-03-24 19:36:00,71.4,69.6,29.71,SSW,197,1.0,7.0,94,0.00,,,0.00,meteohub,2013-03-24 23:36:00,
2013-03-24 19:41:00,71.4,69.6,29.71,South,187,2.0,7.0,94,0.00,,,0.00,meteohub,2013-03-24 23:41:00,
2013-03-24 19:46:00,71.4,69.6,29.71,SSW,211,2.0,7.0,94,0.00,,,0.00,meteohub,2013-03-24 23:46:00,
2013-03-24 19:51:00,71.4,69.6,29.72,SSW,205,2.0,7.0,94,0.00,,,0.00,meteohub,2013-03-24 23:51:00,
2013-03-24 19:56:00,71.4,69.6,29.72,South,191,0.0,6.0,94,0.00,,,0.00,meteohub,2013-03-24 23:56:00,
2013-03-24 20:01:00,71.4,70.0,29.72,SSW,206,5.0,7.0,95,0.00,,,0.00,meteohub,2013-03-25 00:01:00,
2013-03-24 20:11:00,71.2,69.8,29.73,WSW,254,4.0,7.0,95,0.00,,,0.00,meteohub,2013-03-25 00:11:00,
2013-03-24 20:21:00,71.1,69.6,29.73,SW,225,4.0,8.0,95,0.00,,,0.00,meteohub,2013-03-25 00:21:00,
2013-03-24 20:26:00,70.9,69.4,29.73,SSW,206,2.0,8.0,95,0.00,,,0.00,meteohub,2013-03-25 00:26:00,
2013-03-24 20:31:00,70.9,69.4,29.73,SSW,196,0.0,7.0,95,0.00,,,0.00,meteohub,2013-03-25 00:31:00,
2013-03-24 20:36:00,70.9,69.4,29.73,SSW,208,1.0,5.0,95,0.00,,,0.00,meteohub,2013-03-25 00:36:00,
2013-03-24 20:41:00,70.9,69.4,29.73,SW,219,1.0,5.0,95,0.00,,,0.00,meteohub,2013-03-25 00:41:00,
2013-03-24 20:47:00,70.9,69.4,29.73,SW,231,1.0,6.0,95,0.00,,,0.00,meteohub,2013-03-25 00:47:00,
2013-03-24 20:56:00,70.7,69.3,29.74,SW,226,1.0,6.0,95,0.00,,,0.00,meteohub,2013-03-25 00:56:00,
2013-03-24 21:02:00,70.7,69.3,29.74,WNW,296,0.0,5.0,95,0.00,,,0.00,meteohub,2013-03-25 01:02:00,
2013-03-24 21:11:00,70.5,68.7,29.74,WSW,248,0.0,5.0,94,0.00,,,0.00,meteohub,2013-03-25 01:11:00,
2013-03-24 21:16:00,70.7,68.9,29.75,NNW,345,0.0,3.0,94,0.00,,,0.00,meteohub,2013-03-25 01:16:00,
2013-03-24 21:21:00,70.5,68.7,29.75,North,355,0.0,3.0,94,0.00,,,0.00,meteohub,2013-03-25 01:21:00,
2013-03-24 21:26:00,70.5,68.7,29.75,SW,235,1.0,3.0,94,0.00,,,0.00,meteohub,2013-03-25 01:26:00,
2013-03-24 21:36:00,70.5,68.7,29.75,SSW,202,2.0,5.0,94,0.00,,,0.00,meteohub,2013-03-25 01:36:00,
2013-03-24 21:41:00,70.5,68.4,29.75,WSW,252,2.0,4.0,93,0.00,,,0.00,meteohub,2013-03-25 01:41:00,
2013-03-24 21:46:00,70.5,68.4,29.76,SW,229,2.0,4.0,93,0.00,,,0.00,meteohub,2013-03-25 01:46:00,
2013-03-24 21:51:00,70.5,68.4,29.76,WNW,295,1.0,5.0,93,0.00,,,0.00,meteohub,2013-03-25 01:51:00,
2013-03-24 21:56:00,70.5,68.0,29.76,SW,222,3.0,7.0,92,0.00,,,0.00,meteohub,2013-03-25 01:56:00,
2013-03-24 22:06:00,70.5,67.8,29.77,SW,222,3.0,7.0,91,0.00,,,0.00,meteohub,2013-03-25 02:06:00,
2013-03-24 22:11:00,70.7,68.0,29.77,WNW,290,0.0,7.0,91,0.00,,,0.00,meteohub,2013-03-25 02:11:00,
2013-03-24 22:16:00,70.7,68.0,29.77,NNW,332,1.0,7.0,91,0.00,,,0.00,meteohub,2013-03-25 02:16:00,
2013-03-24 22:21:00,70.7,68.0,29.77,NW,306,1.0,7.0,91,0.00,,,0.00,meteohub,2013-03-25 02:21:00,
2013-03-24 22:26:00,70.5,67.8,29.77,NW,310,0.0,7.0,91,0.00,,,0.00,meteohub,2013-03-25 02:26:00,
2013-03-24 22:36:00,70.3,67.8,29.77,SSW,209,0.0,5.0,92,0.00,,,0.00,meteohub,2013-03-25 02:36:00,
2013-03-24 22:41:00,70.3,67.8,29.78,SW,234,1.0,3.0,92,0.00,,,0.00,meteohub,2013-03-25 02:41:00,
2013-03-24 22:46:00,70.2,67.6,29.77,SW,226,0.0,3.0,92,0.00,,,0.00,meteohub,2013-03-25 02:46:00,
2013-03-24 22:51:00,70.2,67.5,29.77,SSW,204,0.0,4.0,91,0.00,,,0.00,meteohub,2013-03-25 02:51:00,
2013-03-24 23:02:00,70.2,67.5,29.77,WSW,258,2.0,3.0,91,0.00,,,0.00,meteohub,2013-03-25 03:02:00,
2013-03-24 23:11:00,69.8,67.3,29.77,SSW,204,2.0,4.0,92,0.00,,,0.00,meteohub,2013-03-25 03:11:00,
2013-03-24 23:16:00,69.6,67.3,29.77,SSW,202,1.0,4.0,92,0.00,,,0.00,meteohub,2013-03-25 03:16:00,
2013-03-24 23:22:00,69.4,67.1,29.78,SSW,209,1.0,6.0,92,0.00,,,0.00,meteohub,2013-03-25 03:22:00,
2013-03-24 23:31:00,69.4,67.1,29.78,SW,215,3.0,6.0,92,0.00,,,0.00,meteohub,2013-03-25 03:31:00,
2013-03-24 23:36:00,69.3,66.9,29.78,SSW,193,1.0,5.0,92,0.00,,,0.00,meteohub,2013-03-25 03:36:00,
2013-03-24 23:41:00,69.3,66.9,29.78,South,190,0.0,4.0,92,0.00,,,0.00,meteohub,2013-03-25 03:41:00,
2013-03-24 23:46:00,69.3,66.9,29.78,SW,217,1.0,5.0,92,0.00,,,0.00,meteohub,2013-03-25 03:46:00,
2013-03-24 23:56:00,69.1,66.9,29.77,SW,217,2.0,5.0,93,0.00,,,0.00,meteohub,2013-03-25 03:56:00,